createdAt,value
2019-06-09T00:02:11.388Z,2.70
2019-06-09T00:05:01.505Z,3.20
2019-06-09T00:07:50.647Z,3.10
2019-06-09T00:10:39.423Z,3.10
2019-06-09T00:13:29.347Z,3.03
2019-06-09T00:16:18.495Z,2.80
2019-06-09T00:19:12.754Z,3.47
2019-06-09T00:22:03.046Z,2.97
2019-06-09T00:24:51.181Z,3.27
2019-06-09T00:27:39.110Z,3.60
2019-06-09T00:30:28.847Z,4.23
2019-06-09T00:33:18.186Z,4.50
2019-06-09T00:36:09.399Z,3.83
2019-06-09T00:38:57.845Z,3.23
2019-06-09T00:41:48.445Z,3.80
2019-06-09T00:44:37.990Z,4.60
2019-06-09T00:47:28.115Z,3.10
2019-06-09T00:50:18.382Z,3.37
2019-06-09T00:53:11.266Z,3.67
2019-06-09T00:55:58.010Z,3.40
2019-06-09T01:02:00.885Z,3.67
2019-06-09T01:04:43.374Z,3.77
2019-06-09T01:07:37.746Z,2.77
2019-06-09T01:10:27.904Z,2.80
2019-06-09T01:13:20.083Z,3.20
2019-06-09T01:16:09.483Z,2.57
2019-06-09T01:18:57.567Z,2.40
2019-06-09T01:21:47.782Z,2.97
2019-06-09T01:24:38.395Z,3.10
2019-06-09T01:27:28.100Z,3.37
2019-06-09T01:30:21.906Z,2.67
2019-06-09T01:33:07.214Z,2.77
2019-06-09T01:35:57.515Z,2.83
2019-06-09T01:38:47.724Z,3.43
2019-06-09T01:41:37.756Z,3.40
2019-06-09T01:44:28.118Z,2.93
2019-06-09T01:47:19.247Z,3.40
2019-06-09T01:50:07.879Z,2.80
2019-06-09T01:52:57.632Z,3.13
2019-06-09T01:55:47.709Z,2.70
2019-06-09T01:58:37.358Z,2.60
2019-06-09T02:01:27.669Z,2.40
2019-06-09T02:04:19.501Z,2.70
2019-06-09T02:07:07.465Z,2.50
2019-06-09T02:09:57.929Z,2.77
2019-06-09T02:12:48.001Z,2.67
2019-06-09T02:15:37.767Z,3.67
2019-06-09T02:18:28.472Z,2.60
2019-06-09T02:21:18.475Z,2.33
2019-06-09T02:24:08.249Z,3.00
2019-06-09T02:29:38.125Z,2.47
2019-06-09T02:32:35.492Z,3.23
2019-06-09T02:35:24.890Z,2.70
2019-06-09T02:38:08.271Z,2.67
2019-06-09T02:40:57.502Z,3.60
2019-06-09T02:43:45.910Z,2.80
2019-06-09T02:46:43.640Z,2.40
2019-06-09T02:49:40.258Z,3.00
2019-06-09T02:52:29.271Z,2.50
2019-06-09T02:55:12.610Z,2.80
2019-06-09T02:58:02.169Z,2.63
2019-06-09T03:00:53.976Z,3.80
2019-06-09T03:03:59.577Z,3.93
2019-06-09T03:06:39.374Z,3.63
2019-06-09T03:09:26.382Z,3.40
2019-06-09T03:12:13.023Z,3.10
2019-06-09T03:15:02.986Z,3.10
2019-06-09T03:17:52.581Z,3.47
2019-06-09T03:20:44.802Z,3.27
2019-06-09T03:23:39.153Z,4.43
2019-06-09T03:26:26.779Z,3.47
2019-06-09T03:29:12.495Z,3.70
2019-06-09T03:32:23.445Z,3.93
2019-06-09T03:35:36.415Z,3.83
2019-06-09T03:38:17.083Z,3.37
2019-06-09T03:40:40.815Z,3.43
2019-06-09T03:43:31.680Z,3.33
2019-06-09T03:46:17.539Z,4.73
2019-06-09T03:49:06.631Z,3.50
2019-06-09T03:51:55.520Z,6.67
2019-06-09T03:54:46.783Z,6.00
2019-06-09T03:57:40.399Z,5.37
2019-06-09T04:00:29.396Z,6.37
2019-06-09T04:03:14.198Z,4.00
2019-06-09T04:06:18.384Z,4.20
2019-06-09T04:08:52.909Z,3.80
2019-06-09T04:11:44.176Z,4.13
2019-06-09T04:14:39.802Z,3.70
2019-06-09T04:17:24.060Z,4.00
2019-06-09T04:20:12.981Z,3.90
2019-06-09T04:23:02.503Z,4.03
2019-06-09T04:25:52.329Z,4.17
2019-06-09T04:28:45.577Z,3.67
2019-06-09T04:31:39.045Z,3.37
2019-06-09T04:34:32.071Z,3.50
2019-06-09T04:37:17.687Z,3.50
2019-06-09T04:40:06.284Z,3.20
2019-06-09T04:42:54.907Z,2.57
2019-06-09T04:48:42.963Z,2.60
2019-06-09T04:51:33.484Z,2.53
2019-06-09T04:54:21.758Z,2.20
2019-06-09T04:57:12.114Z,2.63
2019-06-09T05:00:03.580Z,2.63
2019-06-09T05:02:52.947Z,2.30
2019-06-09T05:05:46.147Z,2.40
2019-06-09T05:08:36.306Z,2.20
2019-06-09T05:11:27.812Z,2.30
2019-06-09T05:14:16.821Z,3.07
2019-06-09T05:17:04.965Z,2.67
2019-06-09T05:19:55.677Z,2.60
2019-06-09T05:22:48.487Z,2.20
2019-06-09T05:25:38.266Z,2.73
2019-06-09T05:28:25.060Z,2.90
2019-06-09T05:31:14.055Z,2.30
2019-06-09T05:34:02.874Z,2.30
2019-06-09T05:37:09.339Z,2.57
2019-06-09T05:39:47.839Z,2.37
2019-06-09T05:42:34.281Z,2.20
2019-06-09T05:45:23.506Z,2.90
2019-06-09T05:48:14.691Z,2.37
2019-06-09T05:51:03.890Z,2.47
2019-06-09T05:53:52.110Z,2.40
2019-06-09T05:56:42.471Z,1.77
2019-06-09T05:59:34.035Z,2.90
2019-06-09T06:02:21.991Z,2.30
2019-06-09T06:05:10.887Z,2.00
2019-06-09T06:08:01.829Z,2.17
2019-06-09T06:10:51.165Z,2.30
2019-06-09T06:13:46.266Z,2.10
2019-06-09T06:16:34.639Z,3.03
2019-06-09T06:19:23.906Z,2.30
2019-06-09T06:22:12.583Z,1.93
2019-06-09T06:25:01.219Z,2.27
2019-06-09T06:27:53.281Z,2.50
2019-06-09T06:30:44.108Z,2.17
2019-06-09T06:33:32.430Z,2.20
2019-06-09T06:36:21.395Z,2.83
2019-06-09T06:39:11.496Z,2.83
2019-06-09T06:42:01.167Z,2.10
2019-06-09T06:44:52.207Z,2.20
2019-06-09T06:47:47.512Z,1.93
2019-06-09T06:50:39.210Z,2.30
2019-06-09T06:53:27.962Z,2.00
2019-06-09T06:56:16.034Z,1.90
2019-06-09T06:59:04.617Z,2.10
2019-06-09T07:01:56.051Z,1.87
2019-06-09T07:04:54.622Z,3.00
2019-06-09T07:07:54.154Z,2.40
2019-06-09T07:10:33.571Z,1.90
2019-06-09T07:13:22.482Z,1.70
2019-06-09T07:16:11.159Z,1.90
2019-06-09T07:19:01.128Z,2.17
2019-06-09T07:21:53.329Z,2.33
2019-06-09T07:24:41.513Z,1.77
2019-06-09T07:27:31.100Z,2.00
2019-06-09T07:30:21.293Z,1.90
2019-06-09T07:33:11.720Z,1.60
2019-06-09T07:36:01.912Z,2.20
2019-06-09T07:38:54.911Z,1.57
2019-06-09T07:41:44.524Z,1.70
2019-06-09T07:44:32.605Z,2.10
2019-06-09T07:47:21.874Z,1.77
2019-06-09T07:50:11.151Z,2.00
2019-06-09T07:53:02.730Z,2.00
2019-06-09T07:55:52.417Z,1.67
2019-06-09T07:58:41.814Z,1.60
2019-06-09T08:01:31.356Z,1.50
2019-06-09T08:04:21.643Z,1.50
2019-06-09T08:07:11.262Z,2.13
2019-06-09T08:10:01.293Z,1.80
2019-06-09T08:12:55.358Z,1.70
2019-06-09T08:15:41.800Z,2.23
2019-06-09T08:18:31.610Z,1.90
2019-06-09T08:21:21.283Z,1.63
2019-06-09T08:24:11.716Z,1.83
2019-06-09T08:27:02.134Z,1.83
2019-06-09T08:29:52.582Z,2.00
2019-06-09T08:32:43.991Z,1.47
2019-06-09T08:35:32.719Z,1.70
2019-06-09T08:38:24.971Z,1.57
2019-06-09T08:41:14.623Z,2.03
2019-06-09T08:44:03.483Z,1.80
2019-06-09T08:46:54.378Z,1.40
2019-06-09T08:49:43.922Z,2.13
2019-06-09T08:52:32.865Z,1.53
2019-06-09T08:55:21.429Z,1.60
2019-06-09T08:58:11.237Z,1.90
2019-06-09T09:01:02.187Z,1.57
2019-06-09T09:03:52.789Z,1.57
2019-06-09T09:06:40.658Z,1.50
2019-06-09T09:09:33.185Z,1.70
2019-06-09T09:12:21.235Z,1.50
2019-06-09T09:15:11.121Z,1.63
2019-06-09T09:18:01.080Z,1.43
2019-06-09T09:20:51.648Z,1.87
2019-06-09T09:23:41.191Z,1.50
2019-06-09T09:26:31.641Z,1.30
2019-06-09T09:29:21.048Z,1.57
2019-06-09T09:32:10.881Z,1.30
2019-06-09T09:35:00.978Z,1.77
2019-06-09T09:37:52.214Z,1.80
2019-06-09T09:40:40.697Z,2.23
2019-06-09T09:43:31.448Z,1.20
2019-06-09T09:46:21.054Z,1.40
2019-06-09T09:49:11.559Z,1.30
2019-06-09T09:52:01.907Z,1.43
2019-06-09T09:54:52.719Z,1.30
2019-06-09T09:57:41.256Z,1.20
2019-06-09T10:00:32.005Z,1.30
2019-06-09T10:03:26.563Z,1.20
2019-06-09T10:06:15.198Z,1.30
2019-06-09T10:09:05.234Z,1.77
2019-06-09T10:11:55.986Z,1.70
2019-06-09T10:14:44.236Z,2.10
2019-06-09T10:17:32.855Z,2.17
2019-06-09T10:20:21.935Z,2.13
2019-06-09T10:23:12.209Z,2.03
2019-06-09T10:26:02.344Z,1.90
2019-06-09T10:28:52.384Z,1.80
2019-06-09T10:31:42.134Z,2.80
2019-06-09T10:34:31.593Z,2.03
2019-06-09T10:37:21.956Z,1.50
2019-06-09T10:40:21.198Z,1.67
2019-06-09T10:43:04.371Z,1.80
2019-06-09T10:45:54.578Z,2.10
2019-06-09T10:48:42.647Z,1.60
2019-06-09T10:51:31.226Z,2.90
2019-06-09T10:54:21.567Z,1.93
2019-06-09T10:57:11.418Z,2.30
2019-06-09T11:00:21.792Z,2.20
2019-06-09T11:02:51.494Z,2.23
2019-06-09T11:05:41.752Z,2.00
2019-06-09T11:08:31.890Z,2.23
2019-06-09T11:11:23.647Z,2.30
2019-06-09T11:14:11.640Z,1.57
2019-06-09T11:17:05.016Z,2.00
2019-06-09T11:19:52.054Z,2.13
2019-06-09T11:22:41.782Z,1.90
2019-06-09T11:25:31.827Z,2.43
2019-06-09T11:28:22.629Z,2.30
2019-06-09T11:31:11.258Z,2.77
2019-06-09T11:34:03.794Z,2.00
2019-06-09T11:36:52.509Z,2.37
2019-06-09T11:39:42.551Z,2.13
2019-06-09T11:42:32.418Z,2.27
2019-06-09T11:45:23.042Z,2.20
2019-06-09T11:48:11.756Z,1.93
2019-06-09T11:51:03.617Z,1.87
2019-06-09T11:53:57.410Z,2.47
2019-06-09T11:56:46.790Z,3.03
2019-06-09T11:59:41.611Z,3.20
2019-06-09T12:02:30.833Z,2.20
2019-06-09T12:05:21.953Z,2.50
2019-06-09T12:08:10.839Z,2.60
2019-06-09T12:11:05.371Z,2.20
2019-06-09T12:13:50.864Z,2.57
2019-06-09T12:16:42.422Z,2.87
2019-06-09T12:19:29.851Z,3.40
2019-06-09T12:22:20.819Z,2.90
2019-06-09T12:25:14.427Z,2.60
2019-06-09T12:28:00.274Z,2.23
2019-06-09T12:30:51.140Z,2.57
2019-06-09T12:33:41.387Z,2.20
2019-06-09T12:36:31.443Z,3.10
2019-06-09T12:39:21.534Z,2.10
2019-06-09T12:42:12.421Z,1.90
2019-06-09T12:45:04.252Z,2.20
2019-06-09T12:47:52.286Z,3.30
2019-06-09T12:50:40.791Z,3.33
2019-06-09T12:53:31.434Z,2.43
2019-06-09T12:56:20.931Z,2.90
2019-06-09T12:59:11.629Z,2.63
2019-06-09T13:02:03.448Z,3.00
2019-06-09T13:04:57.034Z,2.20
2019-06-09T13:07:47.689Z,2.67
2019-06-09T13:10:36.890Z,2.70
2019-06-09T13:13:25.146Z,2.50
2019-06-09T13:16:28.055Z,2.80
2019-06-09T13:19:04.546Z,2.67
2019-06-09T13:21:53.268Z,2.53
2019-06-09T13:24:41.825Z,2.23
2019-06-09T13:27:30.961Z,2.60
2019-06-09T13:30:21.720Z,2.93
2019-06-09T13:33:12.409Z,4.50
2019-06-09T13:36:02.876Z,3.50
2019-06-09T13:41:41.398Z,3.30
2019-06-09T13:44:21.385Z,3.40
2019-06-09T13:47:13.699Z,3.10
2019-06-09T13:50:01.971Z,2.87
2019-06-09T13:52:51.564Z,5.60
2019-06-09T13:55:43.352Z,2.97
2019-06-09T13:58:32.103Z,3.10
2019-06-09T14:01:21.884Z,11.27
2019-06-09T14:04:13.914Z,8.13
2019-06-09T14:07:01.662Z,3.40
2019-06-09T14:09:52.071Z,2.97
2019-06-09T14:12:42.086Z,3.10
2019-06-09T14:15:31.906Z,3.63
2019-06-09T14:18:20.126Z,2.60
2019-06-09T14:21:09.812Z,3.63
2019-06-09T14:23:59.795Z,2.70
2019-06-09T14:26:48.281Z,3.57
2019-06-09T14:29:37.533Z,2.70
2019-06-09T14:32:29.948Z,2.80
2019-06-09T14:35:17.890Z,3.40
2019-06-09T14:38:07.172Z,2.13
2019-06-09T14:40:56.314Z,2.77
2019-06-09T14:43:46.090Z,3.03
2019-06-09T14:46:35.313Z,5.17
2019-06-09T14:49:24.227Z,3.57
2019-06-09T14:52:15.059Z,6.03
2019-06-09T14:55:03.478Z,4.13
2019-06-09T14:57:52.439Z,5.90
2019-06-09T15:00:42.286Z,4.10
2019-06-09T15:03:30.990Z,3.10
2019-06-09T15:06:20.769Z,2.50
2019-06-09T15:09:12.658Z,3.30
2019-06-09T15:12:01.468Z,3.03
2019-06-09T15:14:51.811Z,4.70
2019-06-09T15:17:41.391Z,5.40
2019-06-09T15:20:29.674Z,7.67
2019-06-09T15:23:19.389Z,3.90
2019-06-09T15:26:07.919Z,2.80
2019-06-09T15:28:56.451Z,2.60
2019-06-09T15:31:45.213Z,2.87
2019-06-09T15:34:34.101Z,3.10
2019-06-09T15:37:23.526Z,2.90
2019-06-09T15:40:15.836Z,3.20
2019-06-09T15:43:14.667Z,3.00
2019-06-09T15:46:06.210Z,3.53
2019-06-09T15:48:54.843Z,3.17
2019-06-09T15:51:43.926Z,2.57
2019-06-09T15:54:32.499Z,2.57
2019-06-09T15:57:22.956Z,2.67
2019-06-09T16:00:13.741Z,3.03
2019-06-09T16:03:03.743Z,2.87
2019-06-09T16:05:54.656Z,3.37
2019-06-09T16:08:45.740Z,2.90
2019-06-09T16:11:35.078Z,3.30
2019-06-09T16:14:25.441Z,3.30
2019-06-09T16:17:14.581Z,2.77
2019-06-09T16:20:03.559Z,3.30
2019-06-09T16:22:53.055Z,3.33
2019-06-09T16:25:43.792Z,3.93
2019-06-09T16:28:35.641Z,2.90
2019-06-09T16:31:25.904Z,2.60
2019-06-09T16:34:16.685Z,3.10
2019-06-09T16:37:05.276Z,3.73
2019-06-09T16:39:54.040Z,2.57
2019-06-09T16:42:43.127Z,2.70
2019-06-09T16:45:31.998Z,2.37
2019-06-09T16:48:23.177Z,2.67
2019-06-09T16:51:14.834Z,3.13
2019-06-09T16:54:01.718Z,2.93
2019-06-09T16:56:51.621Z,3.07
2019-06-09T16:59:41.002Z,2.97
2019-06-09T17:02:34.214Z,3.07
2019-06-09T17:05:26.876Z,4.70
2019-06-09T17:08:33.325Z,3.93
2019-06-09T17:11:25.012Z,3.60
2019-06-09T17:14:12.623Z,2.70
2019-06-09T17:17:01.340Z,3.50
2019-06-09T17:19:50.987Z,3.30
2019-06-09T17:22:41.375Z,3.17
2019-06-09T17:25:36.702Z,3.77
2019-06-09T17:28:21.249Z,3.20
2019-06-09T17:31:11.142Z,3.30
2019-06-09T17:36:50.736Z,3.20
2019-06-09T17:39:41.385Z,3.53
2019-06-09T17:42:32.444Z,3.10
2019-06-09T17:45:26.309Z,2.93
2019-06-09T17:48:12.974Z,2.83
2019-06-09T17:51:05.937Z,4.40
2019-06-09T17:53:53.249Z,2.77
2019-06-09T17:56:41.921Z,3.20
2019-06-09T17:59:31.708Z,3.50
2019-06-09T18:02:37.056Z,2.70
2019-06-09T18:05:21.013Z,3.47
2019-06-09T18:08:11.860Z,3.10
2019-06-09T18:11:03.741Z,2.80
2019-06-09T18:13:51.975Z,2.63
2019-06-09T18:16:42.022Z,2.93
2019-06-09T18:19:36.966Z,3.00
2019-06-09T18:22:23.112Z,2.80
2019-06-09T18:28:06.572Z,3.13
2019-06-09T18:30:58.031Z,3.60
2019-06-09T18:33:45.636Z,3.53
2019-06-09T18:36:36.490Z,3.03
2019-06-09T18:39:24.987Z,3.97
2019-06-09T18:42:14.242Z,3.30
2019-06-09T18:45:03.782Z,3.40
2019-06-09T18:47:52.349Z,3.30
2019-06-09T18:50:43.310Z,2.90
2019-06-09T18:53:32.622Z,3.50
2019-06-09T18:56:21.339Z,3.17
2019-06-09T18:59:10.891Z,3.30
2019-06-09T19:02:00.668Z,3.20
2019-06-09T19:04:56.198Z,4.00
2019-06-09T19:07:44.302Z,3.20
2019-06-09T19:10:35.697Z,3.67
2019-06-09T19:13:24.042Z,3.13
2019-06-09T19:16:12.887Z,2.80
2019-06-09T19:19:02.224Z,3.40
2019-06-09T19:21:51.440Z,3.33
2019-06-09T19:24:41.412Z,3.07
2019-06-09T19:27:32.633Z,3.20
2019-06-09T19:30:22.075Z,3.50
2019-06-09T19:33:11.615Z,3.90
2019-06-09T19:36:01.356Z,3.77
2019-06-09T19:38:51.931Z,2.73
2019-06-09T19:41:42.247Z,2.93
2019-06-09T19:44:33.737Z,3.57
2019-06-09T19:47:22.258Z,2.90
2019-06-09T19:50:11.715Z,3.27
2019-06-09T19:53:01.148Z,3.73
2019-06-09T19:55:51.665Z,3.50
2019-06-09T19:58:42.773Z,3.97
2019-06-09T20:01:31.091Z,3.20
2019-06-09T20:04:21.839Z,3.80
2019-06-09T20:07:10.852Z,2.90
2019-06-09T20:10:01.405Z,4.07
2019-06-09T20:12:51.696Z,3.67
2019-06-09T20:15:42.679Z,3.47
2019-06-09T20:18:31.324Z,3.53
2019-06-09T20:21:21.792Z,3.10
2019-06-09T20:24:10.975Z,3.47
2019-06-09T20:27:06.451Z,3.50
2019-06-09T20:29:55.614Z,4.40
2019-06-09T20:32:45.029Z,3.60
2019-06-09T20:35:37.352Z,4.17
2019-06-09T20:38:25.915Z,3.70
2019-06-09T20:41:21.623Z,4.20
2019-06-09T20:44:05.023Z,3.37
2019-06-09T20:46:56.180Z,3.80
2019-06-09T20:49:47.612Z,4.00
2019-06-09T20:52:36.102Z,3.00
2019-06-09T20:55:24.485Z,3.30
2019-06-09T20:58:13.240Z,4.67
2019-06-09T21:01:02.497Z,4.00
2019-06-09T21:03:55.547Z,3.60
2019-06-09T21:06:44.421Z,4.23
2019-06-09T21:09:41.388Z,3.70
2019-06-09T21:12:31.214Z,3.97
2019-06-09T21:15:21.362Z,3.90
2019-06-09T21:18:12.711Z,4.00
2019-06-09T21:21:02.026Z,4.10
2019-06-09T21:23:55.058Z,5.20
2019-06-09T21:26:43.740Z,6.30
2019-06-09T21:29:33.542Z,5.80
2019-06-09T21:32:21.822Z,5.53
2019-06-09T21:35:11.261Z,5.17
2019-06-09T21:38:02.011Z,5.13
2019-06-09T21:40:54.030Z,4.97
2019-06-09T21:43:43.490Z,4.97
2019-06-09T21:46:36.106Z,5.30
2019-06-09T21:49:23.546Z,4.60
2019-06-09T21:52:11.789Z,5.07
2019-06-09T21:55:01.417Z,5.23
2019-06-09T21:57:52.099Z,5.30
2019-06-09T22:00:41.115Z,5.43
2019-06-09T22:03:31.471Z,5.87
2019-06-09T22:06:21.622Z,5.60
2019-06-09T22:09:12.155Z,5.27
2019-06-09T22:12:02.382Z,5.70
2019-06-09T22:14:53.205Z,4.57
2019-06-09T22:17:42.398Z,4.27
2019-06-09T22:20:32.024Z,3.97
2019-06-09T22:23:21.515Z,4.40
2019-06-09T22:26:11.917Z,4.13
2019-06-09T22:29:02.015Z,4.40
2019-06-09T22:31:52.393Z,3.90
2019-06-09T22:34:41.355Z,3.80
2019-06-09T22:37:32.272Z,4.10
2019-06-09T22:40:21.878Z,4.30
2019-06-09T22:43:12.027Z,3.87
2019-06-09T22:46:01.457Z,4.60
2019-06-09T22:48:50.914Z,4.73
2019-06-09T22:51:41.073Z,5.80
2019-06-09T22:54:31.441Z,7.67
2019-06-09T22:57:20.590Z,7.93
2019-06-09T23:00:11.752Z,10.23
2019-06-09T23:03:04.290Z,10.63
2019-06-09T23:05:55.426Z,11.10
2019-06-09T23:08:42.584Z,12.17
2019-06-09T23:11:31.515Z,12.43
2019-06-09T23:14:21.396Z,13.00
2019-06-09T23:17:21.854Z,12.10
2019-06-09T23:20:03.424Z,12.17
2019-06-09T23:22:52.735Z,9.00
2019-06-09T23:25:41.723Z,7.40
2019-06-09T23:28:31.468Z,8.77
2019-06-09T23:31:19.758Z,6.47
2019-06-09T23:34:10.706Z,6.53
2019-06-09T23:37:00.710Z,6.70
2019-06-09T23:39:50.638Z,6.27
2019-06-09T23:42:40.184Z,7.07
2019-06-09T23:45:31.565Z,6.90
2019-06-09T23:48:22.046Z,8.17
2019-06-09T23:51:12.522Z,8.20
2019-06-09T23:54:01.679Z,7.60
2019-06-09T23:56:51.254Z,8.60
2019-06-09T23:59:40.892Z,7.33
